Airfield :







YOU CAN JOIN US ON...

 
LOGIN :

Register | Disclaimer

   EN    FR    IT 

 









Legend :    VFR   Marginal VFR   IFR   Intensive IFR   Very Intensive IFR
Visi :
Ceiling :
>= 8 km
>= 3000ft
5 to 8 km
1000 to 3000 ft
1500m to 5 km
500 to 1000 ft
800 to 1500m
200 to 500 ft
< 800m
< 200 ft
Symbols :   Thunderstorms  Fog  Heavy snow  Heavy precipitations  Wind > 20 kt






- Airport Elevation : 270 ft
- IATA code : YMX


CYMX - Montreal International Mirabel

CURRENT METAR :
  • 210500Z 24003KT 25SM FEW150 M04/M06 A3014 RMK AC2 SLP213

EXPIRED METARs :
  • 210400Z 00000KT 25SM FEW100 SCT160 M02/M05 A3013 RMK AC1AC2 SLP209
  • 210300Z 00000KT 25SM FEW060 SCT100 BKN160 M01/M05 A3013 RMK SC2AC2AC2 SLP209

TAF TAF CYMX
Valid from the 21 at 00:00 until the 22 at 00:00 UTC


202338Z 2100/2124 VRB03KT P6SM BKN030 BKN080
TEMPO 2100/2101 BKN020 BKN080
FM210200 VRB03KT P6SM FEW030 FEW060
FM210900 VRB03KT P6SM SKC
PROB30 2109/2112 1SM BR
FM211600 20005KT P6SM SCT020
FM211900 21005KT P6SM BKN020
BECMG 2122/2124 VRB03KT RMK NXT FCST BY 210600Z



MET'MAP, your aeronautical weather chart ! - Copyright ORBIFLY December 2007 - Disclaimer

ORBIFLY MET'MAP TEAM :

Programming & Development : Alexandra Zaïnal
Concept & Development : Baudouin d'Aumeries
Co-Development & Prog : Marc-Olivier Méhu
Technical & hardware support : Manuel Goepfert

Contact : metmap@orbifly.com




SOURCES & CREDITS :

   NOAA